Time;durP1;ratioP1;P1;durP2;ratioP2;P2;SDS_P1;SDS_P2;PMS_P1;PMS_P2;Temp;Humidity;BMP_temperature;BMP_pressure;BME280_temperature;BME280_humidity;BME280_pressure;Samples;Min_cycle;Max_cycle;Signal;HPM_P1;HPM_P2
2023/02/15 00:00:11;;;;;;;1.48;0.90;;;;;;;;;;5123010;27;20510;-71
2023/02/15 00:02:39;;;;;;;0.73;0.73;;;;;;;;;;5123558;27;20357;-71
2023/02/15 00:05:09;;;;;;;5.70;1.05;;;;;;;;;;5131632;27;20043;-71
2023/02/15 00:07:37;;;;;;;0.82;0.70;;;;;;;;;;5124058;27;20043;-72
2023/02/15 00:10:07;;;;;;;0.47;0.47;;;;;;;;;;5131124;27;20050;-72
2023/02/15 00:12:35;;;;;;;1.08;0.98;;;;;;;;;;5125274;27;20419;-71
2023/02/15 00:15:03;;;;;;;2.15;1.27;;;;;;;;;;5127957;27;20043;-72
2023/02/15 00:17:31;;;;;;;2.03;1.60;;;;;;;;;;5125276;27;20043;-71
2023/02/15 00:20:00;;;;;;;1.65;1.55;;;;;;;;;;5121919;27;20051;-72
2023/02/15 00:22:29;;;;;;;0.63;0.63;;;;;;;;;;5130074;27;20047;-72
2023/02/15 00:24:58;;;;;;;2.05;0.85;;;;;;;;;;5119716;27;20047;-72
2023/02/15 00:27:26;;;;;;;4.28;1.38;;;;;;;;;;5129833;27;20138;-72
2023/02/15 00:29:54;;;;;;;1.08;1.08;;;;;;;;;;5128137;27;20051;-72
2023/02/15 00:32:23;;;;;;;0.82;0.82;;;;;;;;;;5125796;27;20078;-71
2023/02/15 00:34:51;;;;;;;1.15;0.80;;;;;;;;;;5125947;27;20410;-72
2023/02/15 00:37:19;;;;;;;0.30;0.30;;;;;;;;;;5121238;28;20050;-72
2023/02/15 00:39:49;;;;;;;0.40;0.40;;;;;;;;;;5130793;27;20046;-72
2023/02/15 00:42:17;;;;;;;1.45;0.70;;;;;;;;;;5121320;27;20058;-72
2023/02/15 00:44:45;;;;;;;1.83;1.73;;;;;;;;;;5116747;27;20437;-71
2023/02/15 00:47:13;;;;;;;3.17;1.98;;;;;;;;;;5125674;27;20051;-72
2023/02/15 00:49:42;;;;;;;2.20;0.65;;;;;;;;;;5129044;27;21444;-72
2023/02/15 00:52:10;;;;;;;1.95;1.83;;;;;;;;;;5127054;27;20051;-72
2023/02/15 00:54:39;;;;;;;1.17;0.77;;;;;;;;;;5128563;28;20058;-72
2023/02/15 00:57:09;;;;;;;5.80;0.95;;;;;;;;;;5129682;28;20035;-71
2023/02/15 00:59:37;;;;;;;0.93;0.68;;;;;;;;;;5130749;27;20047;-72
2023/02/15 01:02:05;;;;;;;0.40;0.40;;;;;;;;;;5121977;27;20055;-71
2023/02/15 01:04:34;;;;;;;0.52;0.52;;;;;;;;;;5116931;27;20044;-72
2023/02/15 01:07:03;;;;;;;1.23;0.68;;;;;;;;;;5128906;27;20384;-71
2023/02/15 01:09:31;;;;;;;0.98;0.98;;;;;;;;;;5135123;27;20096;-71
2023/02/15 01:12:00;;;;;;;0.28;0.28;;;;;;;;;;5124839;27;20127;-71
2023/02/15 01:14:29;;;;;;;0.30;0.30;;;;;;;;;;5120844;27;20052;-71
2023/02/15 01:16:57;;;;;;;0.70;0.70;;;;;;;;;;5132568;27;20120;-72
2023/02/15 01:19:26;;;;;;;0.93;0.93;;;;;;;;;;5140050;27;20042;-72
2023/02/15 01:21:54;;;;;;;3.47;0.85;;;;;;;;;;5123179;27;20555;-72
2023/02/15 01:24:22;;;;;;;3.45;1.80;;;;;;;;;;5127793;27;20055;-72
2023/02/15 01:26:51;;;;;;;0.68;0.60;;;;;;;;;;5132911;27;20047;-72
2023/02/15 01:29:19;;;;;;;2.67;1.25;;;;;;;;;;5127690;27;20039;-72
2023/02/15 01:31:49;;;;;;;0.47;0.47;;;;;;;;;;5132314;27;20058;-72
2023/02/15 01:34:17;;;;;;;0.63;0.40;;;;;;;;;;5125644;27;20054;-72
2023/02/15 01:36:45;;;;;;;0.68;0.50;;;;;;;;;;5129644;27;20480;-71
2023/02/15 01:39:14;;;;;;;1.63;1.35;;;;;;;;;;5131036;27;20044;-72
2023/02/15 01:41:42;;;;;;;1.42;1.27;;;;;;;;;;5131206;27;20479;-71
2023/02/15 01:44:29;;;;;;;0.80;0.80;;;;;;;;;;5130340;27;20066;-71
2023/02/15 01:46:59;;;;;;;0.32;0.32;;;;;;;;;;5130027;27;20088;-71
2023/02/15 01:49:28;;;;;;;0.30;0.30;;;;;;;;;;5129061;27;20052;-72
2023/02/15 01:51:56;;;;;;;0.70;0.70;;;;;;;;;;5132892;27;20039;-71
2023/02/15 01:54:27;;;;;;;0.40;0.40;;;;;;;;;;5126592;27;20055;-71
2023/02/15 01:56:56;;;;;;;1.65;1.45;;;;;;;;;;5127834;27;21147;-71
2023/02/15 01:59:25;;;;;;;1.13;0.77;;;;;;;;;;5129573;27;20047;-71
2023/02/15 02:01:56;;;;;;;1.23;0.98;;;;;;;;;;5123524;27;20047;-71
2023/02/15 02:04:27;;;;;;;1.55;0.85;;;;;;;;;;5123894;27;20062;-71
2023/02/15 02:06:55;;;;;;;0.65;0.65;;;;;;;;;;5119545;27;20050;-71
2023/02/15 02:09:24;;;;;;;0.30;0.30;;;;;;;;;;5126299;27;20042;-72
2023/02/15 02:11:53;;;;;;;0.40;0.40;;;;;;;;;;5120415;27;20058;-72
2023/02/15 02:14:22;;;;;;;0.85;0.75;;;;;;;;;;5127968;27;20460;-71
2023/02/15 02:16:54;;;;;;;1.02;1.00;;;;;;;;;;5128114;27;20045;-71
2023/02/15 02:19:41;;;;;;;0.40;0.40;;;;;;;;;;5127060;27;20055;-71
2023/02/15 02:22:20;;;;;;;0.43;0.43;;;;;;;;;;5130914;27;20070;-71
2023/02/15 02:25:02;;;;;;;0.60;0.60;;;;;;;;;;5130433;27;20058;-71
2023/02/15 02:27:37;;;;;;;0.85;0.85;;;;;;;;;;5127282;27;20483;-71
2023/02/15 02:30:05;;;;;;;;;;;;;;;;;;5128064;27;20535;-71
2023/02/15 02:32:54;;;;;;;0.73;0.73;;;;;;;;;;5135956;27;19927;-71
2023/02/15 02:35:29;;;;;;;0.38;0.38;;;;;;;;;;5125575;27;20463;-71
2023/02/15 02:38:02;;;;;;;0.85;0.85;;;;;;;;;;5130777;27;20047;-71
2023/02/15 02:40:33;;;;;;;1.48;1.38;;;;;;;;;;5125265;27;20044;-71
2023/02/15 02:43:03;;;;;;;0.50;0.50;;;;;;;;;;5127960;27;20070;-71
2023/02/15 02:45:34;;;;;;;1.55;1.45;;;;;;;;;;5124164;27;20051;-71
2023/02/15 02:48:05;;;;;;;2.47;1.52;;;;;;;;;;5124433;27;20518;-71
2023/02/15 02:50:35;;;;;;;1.88;1.20;;;;;;;;;;5129772;27;20040;-71
2023/02/15 02:53:03;;;;;;;0.80;0.60;;;;;;;;;;5131495;27;20047;-71
2023/02/15 02:55:32;;;;;;;0.50;0.50;;;;;;;;;;5128329;27;20055;-71
2023/02/15 02:58:02;;;;;;;0.35;0.35;;;;;;;;;;5126448;27;20114;-71
2023/02/15 03:00:36;;;;;;;0.82;0.75;;;;;;;;;;5131207;27;20054;-71
2023/02/15 03:03:08;;;;;;;1.93;0.73;;;;;;;;;;5131835;27;20061;-71
2023/02/15 03:05:39;;;;;;;0.55;0.50;;;;;;;;;;5115251;27;20108;-71
2023/02/15 03:08:09;;;;;;;0.47;0.47;;;;;;;;;;5131083;27;20050;-69
2023/02/15 03:10:38;;;;;;;0.65;0.65;;;;;;;;;;5131211;27;20049;-69
2023/02/15 03:13:07;;;;;;;3.00;1.02;;;;;;;;;;5126759;27;20372;-69
2023/02/15 03:18:27;;;;;;;1.08;0.60;;;;;;;;;;5122515;27;20072;-69
2023/02/15 03:20:56;;;;;;;0.88;0.88;;;;;;;;;;5119820;27;20047;-69
2023/02/15 03:23:27;;;;;;;2.83;0.50;;;;;;;;;;5125942;27;20054;-69
2023/02/15 03:25:58;;;;;;;0.70;0.70;;;;;;;;;;5121193;27;20051;-69
2023/02/15 03:28:29;;;;;;;0.77;0.77;;;;;;;;;;5123953;27;20047;-69
2023/02/15 03:31:00;;;;;;;0.85;0.85;;;;;;;;;;5124198;27;20062;-69
2023/02/15 03:33:29;;;;;;;2.05;1.08;;;;;;;;;;5128830;27;20047;-69
2023/02/15 03:36:03;;;;;;;0.60;0.60;;;;;;;;;;5128451;27;20043;-69
2023/02/15 03:38:34;;;;;;;0.70;0.70;;;;;;;;;;5128005;27;20555;-69
2023/02/15 03:41:10;;;;;;;1.50;1.42;;;;;;;;;;5120350;27;20059;-69
2023/02/15 03:43:41;;;;;;;1.63;1.52;;;;;;;;;;5123173;27;20050;-69
2023/02/15 03:46:12;;;;;;;0.70;0.43;;;;;;;;;;5130463;27;20044;-69
2023/02/15 03:48:42;;;;;;;0.60;0.57;;;;;;;;;;5128509;27;20490;-70
2023/02/15 03:51:34;;;;;;;5.90;0.82;;;;;;;;;;5123911;27;20567;-70
2023/02/15 03:54:03;;;;;;;0.52;0.45;;;;;;;;;;5126591;27;20053;-69
2023/02/15 03:56:31;;;;;;;0.45;0.45;;;;;;;;;;5130005;27;20400;-69
2023/02/15 04:01:59;;;;;;;0.60;0.60;;;;;;;;;;5066180;27;20054;-68
2023/02/15 04:04:30;;;;;;;1.23;1.17;;;;;;;;;;5128780;27;20529;-68
2023/02/15 04:06:59;;;;;;;1.77;1.67;;;;;;;;;;5123999;27;20043;-70
2023/02/15 04:12:14;;;;;;;0.50;0.50;;;;;;;;;;5127827;27;20043;-70
2023/02/15 04:17:28;;;;;;;0.73;0.73;;;;;;;;;;5124292;27;20039;-70
2023/02/15 04:25:29;;;;;;;0.35;0.35;;;;;;;;;;5115992;27;20039;-71
2023/02/15 04:27:58;;;;;;;1.95;0.60;;;;;;;;;;5125439;27;20035;-70
2023/02/15 04:30:27;;;;;;;0.57;0.57;;;;;;;;;;5127784;27;20134;-70
2023/02/15 04:32:58;;;;;;;2.28;0.73;;;;;;;;;;5127513;27;20055;-70
2023/02/15 04:35:26;;;;;;;0.80;0.70;;;;;;;;;;5118870;27;20059;-70
2023/02/15 04:37:56;;;;;;;0.52;0.52;;;;;;;;;;5119668;28;20050;-70
2023/02/15 04:40:24;;;;;;;2.08;1.50;;;;;;;;;;5123286;27;20483;-70
2023/02/15 04:42:53;;;;;;;0.85;0.85;;;;;;;;;;5131276;27;20058;-70
2023/02/15 04:45:21;;;;;;;1.10;0.65;;;;;;;;;;5132968;27;20047;-70
2023/02/15 04:47:49;;;;;;;1.90;1.05;;;;;;;;;;5123257;27;20043;-70
2023/02/15 04:50:18;;;;;;;1.13;0.90;;;;;;;;;;5133847;27;20668;-70
2023/02/15 04:52:46;;;;;;;0.82;0.63;;;;;;;;;;5134627;27;20062;-70
2023/02/15 04:55:16;;;;;;;0.77;0.77;;;;;;;;;;5126758;27;20329;-70
2023/02/15 04:57:44;;;;;;;1.52;1.42;;;;;;;;;;5126288;27;20054;-70
2023/02/15 05:00:13;;;;;;;0.85;0.82;;;;;;;;;;5125729;27;20414;-70
2023/02/15 05:02:41;;;;;;;0.93;0.60;;;;;;;;;;5134736;27;20047;-70
2023/02/15 05:05:12;;;;;;;0.75;0.60;;;;;;;;;;5127063;27;20154;-70
2023/02/15 05:07:41;;;;;;;1.33;1.23;;;;;;;;;;5120276;27;20051;-70
2023/02/15 05:10:10;;;;;;;1.10;0.68;;;;;;;;;;5127744;27;20050;-70
2023/02/15 05:12:39;;;;;;;0.30;0.30;;;;;;;;;;5126056;27;20479;-70
2023/02/15 05:15:08;;;;;;;1.40;1.23;;;;;;;;;;5126273;27;20056;-70
2023/02/15 05:17:36;;;;;;;0.30;0.30;;;;;;;;;;5134918;27;20047;-69
2023/02/15 05:20:05;;;;;;;4.03;0.70;;;;;;;;;;5135323;27;20066;-70
2023/02/15 05:22:33;;;;;;;0.65;0.65;;;;;;;;;;5128292;27;20057;-70
2023/02/15 05:30:40;;;;;;;0.90;0.70;;;;;;;;;;5134311;27;20061;-70
2023/02/15 05:33:09;;;;;;;0.60;0.60;;;;;;;;;;5128594;27;20060;-70
2023/02/15 05:35:37;;;;;;;0.73;0.73;;;;;;;;;;5125681;27;20051;-70
2023/02/15 05:38:05;;;;;;;0.70;0.70;;;;;;;;;;5117698;27;20087;-71
2023/02/15 05:40:34;;;;;;;0.70;0.70;;;;;;;;;;5124432;27;20050;-70
2023/02/15 05:43:03;;;;;;;0.95;0.95;;;;;;;;;;5130661;27;20058;-70
2023/02/15 05:45:31;;;;;;;0.50;0.50;;;;;;;;;;5130733;27;20057;-70
2023/02/15 05:48:00;;;;;;;1.63;1.52;;;;;;;;;;5124719;27;20051;-70
2023/02/15 05:50:28;;;;;;;0.32;0.32;;;;;;;;;;5132010;27;20047;-70
2023/02/15 05:52:56;;;;;;;1.27;1.13;;;;;;;;;;5127226;27;20406;-69
2023/02/15 05:55:24;;;;;;;0.70;0.70;;;;;;;;;;5129351;27;20500;-69
2023/02/15 05:57:53;;;;;;;1.38;0.70;;;;;;;;;;5127250;27;20053;-70
2023/02/15 06:00:23;;;;;;;1.42;1.33;;;;;;;;;;5119045;27;20060;-69
2023/02/15 06:02:51;;;;;;;0.50;0.50;;;;;;;;;;5122271;27;20043;-70
2023/02/15 06:05:19;;;;;;;0.55;0.55;;;;;;;;;;5130377;27;20043;-69
2023/02/15 06:07:48;;;;;;;4.30;1.38;;;;;;;;;;5118565;27;20070;-69
2023/02/15 06:10:16;;;;;;;1.38;1.00;;;;;;;;;;5120850;27;20043;-69
2023/02/15 06:12:45;;;;;;;0.40;0.40;;;;;;;;;;5120992;27;20047;-69
2023/02/15 06:15:13;;;;;;;1.10;1.10;;;;;;;;;;5124789;27;20055;-69
2023/02/15 06:17:43;;;;;;;0.60;0.60;;;;;;;;;;5120557;27;20051;-70
2023/02/15 06:20:12;;;;;;;1.55;1.08;;;;;;;;;;5118778;27;20050;-69
2023/02/15 06:22:41;;;;;;;1.67;1.30;;;;;;;;;;5118925;27;20067;-70
2023/02/15 06:25:11;;;;;;;0.60;0.57;;;;;;;;;;5117423;27;20049;-70
2023/02/15 06:27:42;;;;;;;0.75;0.75;;;;;;;;;;5116466;27;20092;-70
2023/02/15 06:30:11;;;;;;;0.50;0.50;;;;;;;;;;5116506;27;20122;-70
2023/02/15 06:32:40;;;;;;;3.42;0.77;;;;;;;;;;5118216;27;20142;-73
2023/02/15 06:35:10;;;;;;;0.95;0.95;;;;;;;;;;5119956;27;20058;-74
2023/02/15 06:37:39;;;;;;;1.52;0.90;;;;;;;;;;5116243;27;20531;-71
2023/02/15 06:40:08;;;;;;;3.60;1.50;;;;;;;;;;5119873;27;20534;-72
2023/02/15 06:42:37;;;;;;;2.78;1.67;;;;;;;;;;5121257;27;20475;-73
2023/02/15 06:45:06;;;;;;;0.73;0.73;;;;;;;;;;5122270;27;20082;-72
2023/02/15 06:47:35;;;;;;;1.55;1.25;;;;;;;;;;5118806;27;20399;-73
2023/02/15 06:50:04;;;;;;;1.33;1.23;;;;;;;;;;5121089;27;20463;-73
2023/02/15 06:52:34;;;;;;;0.55;0.55;;;;;;;;;;5121800;27;20062;-71
2023/02/15 06:55:02;;;;;;;0.45;0.45;;;;;;;;;;5119001;27;20047;-72
2023/02/15 06:57:32;;;;;;;1.15;1.05;;;;;;;;;;5120917;27;20060;-73
2023/02/15 07:00:01;;;;;;;0.70;0.70;;;;;;;;;;5126796;27;20119;-73
2023/02/15 07:02:29;;;;;;;0.70;0.70;;;;;;;;;;5121030;27;20044;-72
2023/02/15 07:04:57;;;;;;;1.55;0.52;;;;;;;;;;5121257;27;20046;-74
2023/02/15 07:07:26;;;;;;;2.85;0.40;;;;;;;;;;5120586;27;20090;-72
2023/02/15 07:09:55;;;;;;;1.50;0.95;;;;;;;;;;5120708;27;20047;-73
2023/02/15 07:12:42;;;;;;;0.63;0.60;;;;;;;;;;5126288;27;20137;-73
2023/02/15 07:15:11;;;;;;;0.75;0.75;;;;;;;;;;5119622;27;20075;-72
2023/02/15 07:17:40;;;;;;;0.82;0.82;;;;;;;;;;5122833;27;20053;-72
2023/02/15 07:20:10;;;;;;;1.27;1.17;;;;;;;;;;5122189;27;20093;-72
2023/02/15 07:22:38;;;;;;;0.30;0.30;;;;;;;;;;5121240;27;20138;-72
2023/02/15 07:25:09;;;;;;;2.95;0.93;;;;;;;;;;5122167;27;20039;-71
2023/02/15 07:27:38;;;;;;;0.88;0.88;;;;;;;;;;5127325;27;20047;-72
2023/02/15 07:30:07;;;;;;;0.40;0.40;;;;;;;;;;5120642;27;20074;-73
2023/02/15 07:32:35;;;;;;;1.25;1.17;;;;;;;;;;5120825;27;20051;-71
2023/02/15 07:35:04;;;;;;;2.13;1.63;;;;;;;;;;5124201;27;20445;-71
2023/02/15 07:37:32;;;;;;;0.50;0.43;;;;;;;;;;5120030;27;21145;-71
2023/02/15 07:40:00;;;;;;;3.63;0.95;;;;;;;;;;5122742;27;20476;-71
2023/02/15 07:42:32;;;;;;;0.57;0.57;;;;;;;;;;5119823;27;20055;-72
2023/02/15 07:45:00;;;;;;;0.70;0.70;;;;;;;;;;5118774;27;20051;-72
2023/02/15 07:47:28;;;;;;;0.55;0.55;;;;;;;;;;5124121;27;20070;-73
2023/02/15 07:49:56;;;;;;;0.50;0.50;;;;;;;;;;5121435;27;20462;-70
2023/02/15 07:52:25;;;;;;;1.30;1.20;;;;;;;;;;5119964;27;20039;-72
2023/02/15 07:54:53;;;;;;;0.45;0.45;;;;;;;;;;5124670;27;20057;-73
2023/02/15 07:57:21;;;;;;;0.70;0.70;;;;;;;;;;5120276;27;20058;-73
2023/02/15 07:59:51;;;;;;;1.75;0.60;;;;;;;;;;5118933;27;20054;-72
2023/02/15 08:02:19;;;;;;;1.05;0.90;;;;;;;;;;5119895;27;20051;-73
2023/02/15 08:04:48;;;;;;;1.30;1.30;;;;;;;;;;5118569;27;20055;-71
2023/02/15 08:07:16;;;;;;;0.98;0.70;;;;;;;;;;5116279;27;20043;-72
2023/02/15 08:09:44;;;;;;;1.70;1.38;;;;;;;;;;5122156;27;22400;-71
2023/02/15 08:12:13;;;;;;;1.58;0.63;;;;;;;;;;5118455;27;20636;-74
2023/02/15 08:14:41;;;;;;;1.15;0.98;;;;;;;;;;5123959;27;20066;-72
2023/02/15 08:17:11;;;;;;;0.88;0.80;;;;;;;;;;5116516;27;20055;-73
2023/02/15 08:19:39;;;;;;;1.73;1.33;;;;;;;;;;5119357;27;20043;-73
2023/02/15 08:22:10;;;;;;;0.90;0.90;;;;;;;;;;5118170;27;20507;-74
2023/02/15 08:24:38;;;;;;;2.28;1.88;;;;;;;;;;5128053;27;20175;-73
2023/02/15 08:27:07;;;;;;;3.95;1.38;;;;;;;;;;5117753;27;20040;-73
2023/02/15 08:29:36;;;;;;;1.17;1.10;;;;;;;;;;5119773;27;20441;-70
2023/02/15 08:32:06;;;;;;;1.63;1.35;;;;;;;;;;5121301;27;20053;-73
2023/02/15 08:34:37;;;;;;;1.58;1.48;;;;;;;;;;5120165;27;20077;-74
2023/02/15 08:37:06;;;;;;;1.00;0.52;;;;;;;;;;5119834;27;20055;-73
2023/02/15 08:39:35;;;;;;;3.30;0.93;;;;;;;;;;5118644;27;20051;-70
2023/02/15 08:42:04;;;;;;;0.68;0.50;;;;;;;;;;5119720;27;20044;-73
2023/02/15 08:44:32;;;;;;;1.15;1.00;;;;;;;;;;5118207;27;20138;-74
2023/02/15 08:47:03;;;;;;;1.92;0.90;;;;;;;;;;5115352;27;20501;-74
2023/02/15 08:49:32;;;;;;;0.85;0.85;;;;;;;;;;5120627;27;20050;-76
2023/02/15 08:52:01;;;;;;;2.85;1.40;;;;;;;;;;5123587;27;20146;-74
2023/02/15 08:54:30;;;;;;;1.70;1.33;;;;;;;;;;5119685;27;20053;-72
2023/02/15 08:56:59;;;;;;;3.25;1.48;;;;;;;;;;5122777;27;20073;-73
2023/02/15 08:59:27;;;;;;;1.33;0.95;;;;;;;;;;5117284;27;20522;-73
2023/02/15 09:01:56;;;;;;;3.22;1.83;;;;;;;;;;5121772;27;20436;-73
2023/02/15 09:04:24;;;;;;;1.85;1.75;;;;;;;;;;5120019;27;20699;-74
2023/02/15 09:06:53;;;;;;;1.48;1.45;;;;;;;;;;5116802;27;20141;-73
2023/02/15 09:09:23;;;;;;;2.50;1.35;;;;;;;;;;5117860;27;20061;-73
2023/02/15 09:11:52;;;;;;;0.82;0.73;;;;;;;;;;5119293;27;20047;-74
2023/02/15 09:14:27;;;;;;;1.30;0.82;;;;;;;;;;5121686;27;20696;-70
2023/02/15 09:16:55;;;;;;;1.13;1.00;;;;;;;;;;5117166;27;20039;-73
2023/02/15 09:19:24;;;;;;;1.52;0.90;;;;;;;;;;5120785;27;20054;-74
2023/02/15 09:21:53;;;;;;;6.32;2.10;;;;;;;;;;5124138;27;21133;-74
2023/02/15 09:24:23;;;;;;;1.63;1.20;;;;;;;;;;5118706;27;20054;-73
2023/02/15 09:26:52;;;;;;;1.45;1.20;;;;;;;;;;5117791;27;20075;-72
2023/02/15 09:29:20;;;;;;;2.20;1.52;;;;;;;;;;5121772;27;20134;-74
2023/02/15 09:31:50;;;;;;;1.98;1.85;;;;;;;;;;5123598;27;20460;-73
2023/02/15 09:34:20;;;;;;;1.25;1.15;;;;;;;;;;5124107;27;20043;-72
2023/02/15 09:36:49;;;;;;;1.98;1.88;;;;;;;;;;5122339;27;20127;-72
2023/02/15 09:39:19;;;;;;;2.45;2.08;;;;;;;;;;5121031;27;20039;-74
2023/02/15 09:42:08;;;;;;;1.20;1.20;;;;;;;;;;5122421;27;20050;-74
2023/02/15 09:44:48;;;;;;;0.75;0.75;;;;;;;;;;5121756;27;20762;-73
2023/02/15 09:47:27;;;;;;;4.05;1.90;;;;;;;;;;5128717;27;20049;-72
2023/02/15 09:50:00;;;;;;;0.82;0.82;;;;;;;;;;5122623;27;20043;-71
2023/02/15 09:52:35;;;;;;;2.22;2.03;;;;;;;;;;5124314;27;20055;-71
2023/02/15 09:55:10;;;;;;;1.42;1.33;;;;;;;;;;5121756;27;20139;-71
2023/02/15 09:57:38;;;;;;;;;;;;;;;;;;5121577;27;20107;-71
2023/02/15 10:00:12;;;;;;;6.78;0.70;;;;;;;;;;5120226;27;19999;-71
2023/02/15 10:02:52;;;;;;;4.53;2.35;;;;;;;;;;5130625;27;20119;-71
2023/02/15 10:05:26;;;;;;;1.58;1.35;;;;;;;;;;5120810;27;20131;-71
2023/02/15 10:08:02;;;;;;;2.75;2.17;;;;;;;;;;5126170;27;20518;-70
2023/02/15 10:10:40;;;;;;;1.77;1.67;;;;;;;;;;5119340;27;20039;-71
2023/02/15 10:13:19;;;;;;;4.45;2.80;;;;;;;;;;5123206;27;20051;-73
2023/02/15 10:16:00;;;;;;;4.85;1.63;;;;;;;;;;5125816;27;20092;-71
2023/02/15 10:18:36;;;;;;;6.10;2.22;;;;;;;;;;5119087;27;20136;-72
2023/02/15 10:21:09;;;;;;;1.77;1.65;;;;;;;;;;5123396;27;20054;-71
2023/02/15 10:23:42;;;;;;;3.13;1.92;;;;;;;;;;5120909;27;20554;-71
2023/02/15 10:26:16;;;;;;;5.78;3.22;;;;;;;;;;5121450;27;20051;-71
2023/02/15 10:28:48;;;;;;;8.98;2.90;;;;;;;;;;5122250;27;20128;-70
2023/02/15 10:31:24;;;;;;;6.05;2.80;;;;;;;;;;5121460;27;20051;-69
2023/02/15 10:33:59;;;;;;;3.92;2.40;;;;;;;;;;5128056;27;20039;-69
2023/02/15 10:36:34;;;;;;;6.78;2.28;;;;;;;;;;5120720;27;20047;-70
2023/02/15 10:39:05;;;;;;;2.50;2.08;;;;;;;;;;5119843;27;20053;-69
2023/02/15 10:41:39;;;;;;;5.80;3.25;;;;;;;;;;5120049;27;20051;-71
2023/02/15 10:44:15;;;;;;;2.93;2.63;;;;;;;;;;5124468;27;20133;-72
2023/02/15 10:46:57;;;;;;;5.18;3.38;;;;;;;;;;5121904;27;20046;-72
2023/02/15 10:49:31;;;;;;;5.88;3.00;;;;;;;;;;5118218;27;20051;-71
2023/02/15 10:52:07;;;;;;;6.97;2.35;;;;;;;;;;5120564;27;20042;-72
2023/02/15 10:54:39;;;;;;;4.55;3.15;;;;;;;;;;5118929;27;20687;-71
2023/02/15 10:57:15;;;;;;;4.72;3.35;;;;;;;;;;5122661;27;20049;-73
2023/02/15 10:59:53;;;;;;;1.65;1.55;;;;;;;;;;5119130;27;20061;-73
2023/02/15 11:02:27;;;;;;;3.03;2.05;;;;;;;;;;5123105;27;20047;-72
2023/02/15 11:05:00;;;;;;;5.20;2.33;;;;;;;;;;5122815;27;20530;-71
2023/02/15 11:07:30;;;;;;;8.85;4.15;;;;;;;;;;5118995;27;20127;-70
2023/02/15 11:10:02;;;;;;;5.93;2.40;;;;;;;;;;5119813;27;20176;-72
2023/02/15 11:12:31;;;;;;;4.20;2.83;;;;;;;;;;5124753;27;20057;-72
2023/02/15 11:15:02;;;;;;;5.60;3.00;;;;;;;;;;5120490;27;20474;-73
2023/02/15 11:17:35;;;;;;;7.72;2.65;;;;;;;;;;5119557;27;20056;-72
2023/02/15 11:20:08;;;;;;;7.53;2.83;;;;;;;;;;5123547;27;20049;-71
2023/02/15 11:22:37;;;;;;;3.35;2.78;;;;;;;;;;5119791;27;20517;-72
2023/02/15 11:25:16;;;;;;;6.47;2.33;;;;;;;;;;5125577;27;20055;-73
2023/02/15 11:27:45;;;;;;;3.75;2.05;;;;;;;;;;5121973;27;20055;-72
2023/02/15 11:30:16;;;;;;;3.50;2.17;;;;;;;;;;5120410;27;20385;-72
2023/02/15 11:32:47;;;;;;;3.17;2.50;;;;;;;;;;5120175;27;21217;-74
2023/02/15 11:35:21;;;;;;;10.50;3.45;;;;;;;;;;5118875;27;20035;-73
2023/02/15 11:37:53;;;;;;;12.40;3.08;;;;;;;;;;5121323;27;20500;-74
2023/02/15 11:40:24;;;;;;;3.53;2.97;;;;;;;;;;5122391;27;20130;-70
2023/02/15 11:42:53;;;;;;;7.57;4.43;;;;;;;;;;5118708;27;20119;-72
2023/02/15 11:45:24;;;;;;;12.32;3.78;;;;;;;;;;5131143;27;20058;-75
2023/02/15 11:52:04;;;;;;;6.00;3.15;;;;;;;;;;5120642;27;20070;-73
2023/02/15 11:54:37;;;;;;;2.50;1.85;;;;;;;;;;5117368;27;20047;-72
2023/02/15 11:57:13;;;;;;;7.32;2.05;;;;;;;;;;5117411;27;20051;-73
2023/02/15 11:59:42;;;;;;;3.55;2.42;;;;;;;;;;5119626;27;20058;-73
2023/02/15 12:02:17;;;;;;;8.48;3.47;;;;;;;;;;5120876;27;20047;-74
2023/02/15 12:04:49;;;;;;;7.35;2.60;;;;;;;;;;5121136;27;20908;-73
2023/02/15 12:07:22;;;;;;;9.70;3.25;;;;;;;;;;5124131;27;20421;-73
2023/02/15 12:09:56;;;;;;;8.55;2.92;;;;;;;;;;5120209;27;20393;-73
2023/02/15 12:12:25;;;;;;;6.55;3.63;;;;;;;;;;5119414;27;20061;-70
2023/02/15 12:14:55;;;;;;;10.88;4.65;;;;;;;;;;5119173;27;20085;-73
2023/02/15 12:17:24;;;;;;;6.38;3.63;;;;;;;;;;5122619;27;20073;-73
2023/02/15 12:19:53;;;;;;;7.07;3.97;;;;;;;;;;5119755;27;20048;-73
2023/02/15 12:22:23;;;;;;;16.70;3.65;;;;;;;;;;5119725;27;20047;-70
2023/02/15 12:24:54;;;;;;;8.63;3.03;;;;;;;;;;5124392;27;20489;-71
2023/02/15 12:27:23;;;;;;;6.50;2.78;;;;;;;;;;5117230;27;20404;-73
2023/02/15 12:29:53;;;;;;;11.85;3.70;;;;;;;;;;5124399;27;20045;-73
2023/02/15 12:32:25;;;;;;;4.93;3.35;;;;;;;;;;5117851;27;20487;-74
2023/02/15 12:34:57;;;;;;;8.10;2.60;;;;;;;;;;5119762;27;20459;-74
2023/02/15 12:37:31;;;;;;;4.28;1.88;;;;;;;;;;5120855;27;20495;-74
2023/02/15 12:40:02;;;;;;;5.97;3.33;;;;;;;;;;5120570;27;20282;-74
2023/02/15 12:42:42;;;;;;;9.98;4.25;;;;;;;;;;5119033;27;20153;-71
2023/02/15 12:45:21;;;;;;;10.38;2.67;;;;;;;;;;5116253;27;20514;-73
2023/02/15 12:48:09;;;;;;;9.40;3.67;;;;;;;;;;5115942;28;20348;-74
2023/02/15 12:50:37;;;;;;;7.75;2.80;;;;;;;;;;5115080;28;20047;-73
2023/02/15 12:53:08;;;;;;;10.02;4.00;;;;;;;;;;5116662;28;20043;-75
2023/02/15 12:55:38;;;;;;;6.93;2.42;;;;;;;;;;5116393;28;20674;-73
2023/02/15 12:58:17;;;;;;;11.60;4.30;;;;;;;;;;5114674;28;20732;-74
2023/02/15 13:00:49;;;;;;;7.38;3.88;;;;;;;;;;5114794;28;20057;-71
2023/02/15 13:03:19;;;;;;;6.28;2.58;;;;;;;;;;5116688;27;20070;-73
2023/02/15 13:05:48;;;;;;;8.95;3.78;;;;;;;;;;5118452;27;20059;-72
2023/02/15 13:08:18;;;;;;;9.02;3.88;;;;;;;;;;5118329;27;20487;-73
2023/02/15 13:14:18;;;;;;;6.13;3.15;;;;;;;;;;5134533;27;20030;-73
2023/02/15 13:16:47;;;;;;;8.23;2.88;;;;;;;;;;5123153;27;20432;-72
2023/02/15 13:26:06;;;;;;;4.45;2.75;;;;;;;;;;5061479;28;20189;-73
2023/02/15 13:28:38;;;;;;;7.38;3.60;;;;;;;;;;5104325;27;20365;-72
2023/02/15 13:31:13;;;;;;;3.25;2.70;;;;;;;;;;5121226;27;20060;-72
2023/02/15 13:33:45;;;;;;;3.50;1.75;;;;;;;;;;5117400;27;20476;-70
2023/02/15 13:36:17;;;;;;;6.18;3.00;;;;;;;;;;5119015;27;20547;-71
2023/02/15 13:38:48;;;;;;;4.88;2.13;;;;;;;;;;5119906;27;20057;-74
2023/02/15 13:41:18;;;;;;;5.68;2.70;;;;;;;;;;5117941;27;20101;-74
2023/02/15 13:43:52;;;;;;;4.90;3.15;;;;;;;;;;5118681;27;20047;-74
2023/02/15 13:46:32;;;;;;;7.63;3.10;;;;;;;;;;5123157;27;20043;-72
2023/02/15 13:49:09;;;;;;;15.75;4.57;;;;;;;;;;5117881;27;20642;-74
2023/02/15 13:51:40;;;;;;;9.15;4.22;;;;;;;;;;5121020;27;20054;-75
2023/02/15 13:54:28;;;;;;;6.55;3.92;;;;;;;;;;5126539;27;20571;-72
2023/02/15 13:57:01;;;;;;;8.65;3.45;;;;;;;;;;5119097;27;20051;-75
2023/02/15 13:59:35;;;;;;;15.02;4.15;;;;;;;;;;5119691;27;20078;-71
2023/02/15 14:02:18;;;;;;;3.78;2.83;;;;;;;;;;5117924;27;20051;-73
2023/02/15 14:04:54;;;;;;;7.80;3.65;;;;;;;;;;5119895;27;20467;-70
2023/02/15 14:07:29;;;;;;;8.50;2.50;;;;;;;;;;5120143;27;20717;-74
2023/02/15 14:10:04;;;;;;;6.05;3.22;;;;;;;;;;5120789;27;20123;-72
2023/02/15 14:12:50;;;;;;;10.98;3.70;;;;;;;;;;5119462;27;20051;-74
2023/02/15 14:15:26;;;;;;;3.78;2.63;;;;;;;;;;5117604;27;20047;-72
2023/02/15 14:18:01;;;;;;;6.22;3.08;;;;;;;;;;5119741;27;20045;-71
2023/02/15 14:20:38;;;;;;;7.78;2.47;;;;;;;;;;5118027;27;20100;-74
2023/02/15 14:23:12;;;;;;;5.80;2.03;;;;;;;;;;5115780;27;20046;-74
2023/02/15 14:25:44;;;;;;;7.47;3.67;;;;;;;;;;5120989;27;20043;-74
2023/02/15 14:28:14;;;;;;;7.13;3.15;;;;;;;;;;5120852;27;20039;-73
2023/02/15 14:30:45;;;;;;;6.20;2.53;;;;;;;;;;5117101;27;20138;-73
2023/02/15 14:33:25;;;;;;;6.10;2.67;;;;;;;;;;5119224;27;20953;-73
2023/02/15 14:35:54;;;;;;;11.00;3.25;;;;;;;;;;5118486;27;20130;-72
2023/02/15 14:38:28;;;;;;;6.68;3.58;;;;;;;;;;5118561;27;20047;-73
2023/02/15 14:41:14;;;;;;;8.27;2.83;;;;;;;;;;5123464;27;20453;-74
2023/02/15 14:43:49;;;;;;;13.95;4.28;;;;;;;;;;5121188;27;20054;-72
2023/02/15 14:46:22;;;;;;;10.95;3.90;;;;;;;;;;5115321;27;20360;-75
2023/02/15 14:48:53;;;;;;;12.00;4.40;;;;;;;;;;5117555;27;20510;-71
2023/02/15 14:51:42;;;;;;;6.97;2.53;;;;;;;;;;5119626;27;20138;-71
2023/02/15 14:54:11;;;;;;;8.82;2.38;;;;;;;;;;5124926;27;20484;-71
2023/02/15 14:56:44;;;;;;;7.60;4.15;;;;;;;;;;5121858;27;20039;-74
2023/02/15 14:59:17;;;;;;;7.22;2.22;;;;;;;;;;5077942;27;20051;-70
2023/02/15 15:01:53;;;;;;;6.20;4.32;;;;;;;;;;5095917;27;20164;-72
2023/02/15 15:04:28;;;;;;;4.28;2.00;;;;;;;;;;5098322;27;20044;-73
2023/02/15 15:07:01;;;;;;;7.85;2.92;;;;;;;;;;5096055;27;20428;-72
2023/02/15 15:09:32;;;;;;;7.60;3.22;;;;;;;;;;5094141;27;20067;-72
2023/02/15 15:12:14;;;;;;;10.02;3.53;;;;;;;;;;5093105;27;20317;-72
2023/02/15 15:14:44;;;;;;;12.00;3.75;;;;;;;;;;5102065;27;20047;-73
2023/02/15 15:17:13;;;;;;;10.38;2.75;;;;;;;;;;5096677;27;20048;-72
2023/02/15 15:20:08;;;;;;;6.25;2.40;;;;;;;;;;5099183;27;20124;-72
2023/02/15 15:22:37;;;;;;;14.00;2.80;;;;;;;;;;5096590;27;21376;-72
2023/02/15 15:25:10;;;;;;;4.95;3.03;;;;;;;;;;5099749;27;20128;-72
2023/02/15 15:27:40;;;;;;;6.88;3.22;;;;;;;;;;5095436;27;20155;-75
2023/02/15 15:30:27;;;;;;;4.13;2.35;;;;;;;;;;5097691;27;20047;-74
2023/02/15 15:33:00;;;;;;;3.53;2.65;;;;;;;;;;5097568;27;20043;-74
2023/02/15 15:35:32;;;;;;;8.82;3.95;;;;;;;;;;5097597;27;20160;-72
2023/02/15 15:38:13;;;;;;;8.48;3.40;;;;;;;;;;5101867;27;20052;-71
2023/02/15 15:41:04;;;;;;;3.70;2.88;;;;;;;;;;5099597;27;20643;-74
2023/02/15 15:43:50;;;;;;;4.90;2.85;;;;;;;;;;5100067;27;20047;-73